createdAt,value
2022-10-26T00:02:03.506Z,6.72
2022-10-26T00:04:33.304Z,5.80
2022-10-26T00:07:05.670Z,10.13
2022-10-26T00:09:35.453Z,5.85
2022-10-26T00:12:05.502Z,6.07
2022-10-26T00:14:35.313Z,6.22
2022-10-26T00:17:05.083Z,13.20
2022-10-26T00:19:38.152Z,4.88
2022-10-26T00:22:10.539Z,10.90
2022-10-26T00:24:40.305Z,7.63
2022-10-26T00:27:10.025Z,10.27
2022-10-26T00:29:39.758Z,11.43
2022-10-26T00:32:09.488Z,9.05
2022-10-26T00:34:39.564Z,6.43
2022-10-26T00:37:12.313Z,8.93
2022-10-26T00:39:42.035Z,7.82
2022-10-26T00:42:15.168Z,7.25
2022-10-26T00:45:01.852Z,9.15
2022-10-26T00:47:38.561Z,8.98
2022-10-26T00:50:13.220Z,11.52
2022-10-26T00:52:45.845Z,14.40
2022-10-26T00:55:15.646Z,10.30
2022-10-26T00:57:45.597Z,11.63
2022-10-26T01:00:15.937Z,10.32
2022-10-26T01:02:48.683Z,10.30
2022-10-26T01:05:20.786Z,12.07
2022-10-26T01:07:54.565Z,11.25
2022-10-26T01:10:25.157Z,8.18
2022-10-26T01:12:55.935Z,10.43
2022-10-26T01:15:31.787Z,12.07
2022-10-26T01:18:10.075Z,10.65
2022-10-26T01:21:03.535Z,7.68
2022-10-26T01:23:48.786Z,9.00
2022-10-26T01:26:40.385Z,12.48
2022-10-26T01:29:46.240Z,10.05
2022-10-26T01:32:25.772Z,11.88
2022-10-26T01:35:03.020Z,10.88
2022-10-26T01:37:38.653Z,8.23
2022-10-26T01:40:13.541Z,18.27
2022-10-26T01:42:47.708Z,7.90
2022-10-26T01:45:18.550Z,10.23
2022-10-26T01:47:52.354Z,7.90
2022-10-26T01:50:23.284Z,9.30
2022-10-26T01:52:53.202Z,9.52
2022-10-26T01:55:43.312Z,13.55
2022-10-26T01:58:26.435Z,11.73
2022-10-26T02:01:07.323Z,10.52
2022-10-26T02:03:46.153Z,10.38
2022-10-26T02:06:22.902Z,9.32
2022-10-26T02:09:09.786Z,12.32
2022-10-26T02:11:42.893Z,8.60
2022-10-26T02:14:21.112Z,14.73
2022-10-26T02:16:58.158Z,11.40
2022-10-26T02:19:36.772Z,10.25
2022-10-26T02:22:15.629Z,10.43
2022-10-26T02:24:46.420Z,9.70
2022-10-26T02:27:21.284Z,10.07
2022-10-26T02:29:53.922Z,10.20
2022-10-26T02:32:26.267Z,14.30
2022-10-26T02:35:02.323Z,10.75
2022-10-26T02:37:34.899Z,11.43
2022-10-26T02:40:08.969Z,9.98
2022-10-26T02:42:40.162Z,11.13
2022-10-26T02:45:14.875Z,8.15
2022-10-26T02:47:44.786Z,11.85
2022-10-26T02:50:18.546Z,11.65
2022-10-26T02:52:52.940Z,12.68
2022-10-26T02:57:58.635Z,11.57
2022-10-26T03:00:28.783Z,12.30
2022-10-26T03:03:02.890Z,9.90
2022-10-26T03:05:36.833Z,16.50
2022-10-26T03:08:07.265Z,10.18
2022-10-26T03:10:39.945Z,12.80
2022-10-26T03:13:09.694Z,10.23
2022-10-26T03:15:39.562Z,8.25
2022-10-26T03:18:11.765Z,9.75
2022-10-26T03:20:46.843Z,14.10
2022-10-26T03:23:16.609Z,14.32
2022-10-26T03:25:46.413Z,9.68
2022-10-26T03:28:16.179Z,12.95
2022-10-26T03:30:45.965Z,15.30
2022-10-26T03:33:16.092Z,9.38
2022-10-26T03:35:48.925Z,9.77
2022-10-26T03:38:18.667Z,11.85
2022-10-26T03:40:48.527Z,16.83
2022-10-26T03:43:18.298Z,9.93
2022-10-26T03:45:48.067Z,11.80
2022-10-26T03:48:17.847Z,12.20
2022-10-26T03:50:50.168Z,11.27
2022-10-26T03:53:19.907Z,10.43
2022-10-26T03:55:49.697Z,15.73
2022-10-26T03:58:19.512Z,9.43
2022-10-26T04:00:50.274Z,14.75
2022-10-26T04:03:20.027Z,8.88
2022-10-26T04:05:52.365Z,14.77
2022-10-26T04:08:22.155Z,7.22
2022-10-26T04:10:52.046Z,7.63
2022-10-26T04:13:21.818Z,10.50
2022-10-26T04:15:51.748Z,8.65
2022-10-26T04:18:21.533Z,12.02
2022-10-26T04:20:53.871Z,9.55
2022-10-26T04:26:13.419Z,9.95
2022-10-26T04:28:43.149Z,10.25
2022-10-26T04:31:12.881Z,11.02
2022-10-26T04:33:42.627Z,9.32
2022-10-26T04:36:15.213Z,8.38
2022-10-26T04:38:44.970Z,8.05
2022-10-26T04:41:14.711Z,15.88
2022-10-26T04:43:44.421Z,12.35
2022-10-26T04:46:16.757Z,7.55
2022-10-26T04:48:46.901Z,10.23
2022-10-26T04:51:19.528Z,16.65
2022-10-26T04:53:49.312Z,10.18
2022-10-26T04:56:19.075Z,9.68
2022-10-26T04:58:48.819Z,7.25
2022-10-26T05:01:18.680Z,13.45
2022-10-26T05:03:52.992Z,9.02
2022-10-26T05:06:25.594Z,6.38
2022-10-26T05:08:55.371Z,7.45
2022-10-26T05:11:25.112Z,10.63
2022-10-26T05:13:54.847Z,7.00
2022-10-26T05:16:24.666Z,11.82
2022-10-26T05:18:54.502Z,12.00
2022-10-26T05:21:26.846Z,11.57
2022-10-26T05:23:56.576Z,9.73
2022-10-26T05:26:27.430Z,7.00
2022-10-26T05:28:57.367Z,8.10
2022-10-26T05:31:27.182Z,8.88
2022-10-26T05:33:56.998Z,10.63
2022-10-26T05:36:29.545Z,8.48
2022-10-26T05:39:00.951Z,8.05
2022-10-26T05:41:30.665Z,13.25
2022-10-26T05:44:00.585Z,9.35
2022-10-26T05:46:30.383Z,7.68
2022-10-26T05:49:00.224Z,11.93
2022-10-26T05:51:32.653Z,11.13
2022-10-26T05:54:02.645Z,9.77
2022-10-26T05:56:38.301Z,10.00
2022-10-26T05:59:13.561Z,7.80
2022-10-26T06:01:56.044Z,13.98
2022-10-26T06:04:38.896Z,8.57
2022-10-26T06:07:17.523Z,10.75
2022-10-26T06:09:48.611Z,8.05
2022-10-26T06:12:20.034Z,9.15
2022-10-26T06:14:51.010Z,7.65
2022-10-26T06:17:34.368Z,8.20
2022-10-26T06:20:16.611Z,9.50
2022-10-26T06:23:02.266Z,8.98
2022-10-26T06:25:40.854Z,8.60
2022-10-26T06:28:22.927Z,7.85
2022-10-26T06:30:52.774Z,13.90
2022-10-26T06:33:30.945Z,10.88
2022-10-26T06:36:13.454Z,11.55
2022-10-26T06:38:48.246Z,7.97
2022-10-26T06:41:19.298Z,8.98
2022-10-26T06:43:49.725Z,9.68
2022-10-26T06:46:32.859Z,8.35
2022-10-26T06:49:09.720Z,10.77
2022-10-26T06:51:46.325Z,11.57
2022-10-26T06:54:24.773Z,6.50
2022-10-26T06:56:55.903Z,10.27
2022-10-26T06:59:35.184Z,9.68
2022-10-26T07:02:06.614Z,5.75
2022-10-26T07:04:37.049Z,8.43
2022-10-26T07:07:06.917Z,6.07
2022-10-26T07:09:39.244Z,8.13
2022-10-26T07:12:09.430Z,9.77
2022-10-26T07:14:39.142Z,17.02
2022-10-26T07:17:09.096Z,13.35
2022-10-26T07:19:40.842Z,14.32
2022-10-26T07:22:10.730Z,7.43
2022-10-26T07:24:43.118Z,11.02
2022-10-26T07:27:12.880Z,11.50
2022-10-26T07:29:42.608Z,7.45
2022-10-26T07:32:12.389Z,10.60
2022-10-26T07:34:42.151Z,12.98
2022-10-26T07:37:11.932Z,6.85
2022-10-26T07:39:44.404Z,11.13
2022-10-26T07:42:14.217Z,9.00
2022-10-26T07:44:43.991Z,9.18
2022-10-26T07:47:13.750Z,10.82
2022-10-26T07:49:43.569Z,8.48
2022-10-26T07:52:13.718Z,10.02
2022-10-26T07:54:46.028Z,11.02
2022-10-26T07:57:15.774Z,10.85
2022-10-26T07:59:45.550Z,9.30
2022-10-26T08:02:15.306Z,8.35
2022-10-26T08:04:45.079Z,10.07
2022-10-26T08:07:14.805Z,12.40
2022-10-26T08:09:47.147Z,13.05
2022-10-26T08:12:17.003Z,9.00
2022-10-26T08:14:47.048Z,8.38
2022-10-26T08:17:16.786Z,14.10
2022-10-26T08:19:46.528Z,11.05
2022-10-26T08:22:16.338Z,8.90
2022-10-26T08:24:48.705Z,9.48
2022-10-26T08:27:18.913Z,8.90
2022-10-26T08:29:48.727Z,14.98
2022-10-26T08:32:18.531Z,9.40
2022-10-26T08:34:48.263Z,7.43
2022-10-26T08:37:17.965Z,8.68
2022-10-26T08:39:53.586Z,10.07
2022-10-26T08:42:31.125Z,5.47
2022-10-26T08:45:04.111Z,8.07
2022-10-26T08:47:39.946Z,8.43
2022-10-26T08:50:14.466Z,8.07
2022-10-26T08:52:49.405Z,12.18
2022-10-26T08:55:28.158Z,9.48
2022-10-26T08:57:58.859Z,10.52
2022-10-26T09:00:29.894Z,8.57
2022-10-26T09:02:59.701Z,12.57
2022-10-26T09:05:37.450Z,16.08
2022-10-26T09:08:15.441Z,5.57
2022-10-26T09:10:59.968Z,9.88
2022-10-26T09:13:38.705Z,9.00
2022-10-26T09:16:14.714Z,7.93
2022-10-26T09:18:57.704Z,5.63
2022-10-26T09:21:40.545Z,9.10
2022-10-26T09:24:16.928Z,4.88
2022-10-26T09:26:57.160Z,5.03
2022-10-26T09:29:30.410Z,3.95
2022-10-26T09:32:03.763Z,6.60
2022-10-26T09:34:41.918Z,6.73
2022-10-26T09:37:18.329Z,7.38
2022-10-26T09:39:58.201Z,10.35
2022-10-26T09:42:39.011Z,4.50
2022-10-26T09:45:16.105Z,7.80
2022-10-26T09:47:52.830Z,8.02
2022-10-26T09:50:26.965Z,7.82
2022-10-26T09:52:56.911Z,6.00
2022-10-26T09:55:27.595Z,8.38
2022-10-26T09:58:04.212Z,5.50
2022-10-26T10:03:29.446Z,4.57
2022-10-26T10:06:18.532Z,8.38
2022-10-26T10:09:11.059Z,8.60
2022-10-26T10:11:42.227Z,11.50
2022-10-26T10:14:19.122Z,4.93
2022-10-26T10:16:58.144Z,5.50
2022-10-26T10:19:29.728Z,4.78
2022-10-26T10:22:01.931Z,8.55
2022-10-26T10:24:33.210Z,12.90
2022-10-26T10:27:05.071Z,8.80
2022-10-26T10:29:43.759Z,7.53
2022-10-26T10:32:20.761Z,10.23
2022-10-26T10:34:50.953Z,10.07
2022-10-26T10:37:29.409Z,11.43
2022-10-26T10:40:01.129Z,6.97
2022-10-26T10:42:34.634Z,10.25
2022-10-26T10:45:08.296Z,9.10
2022-10-26T10:47:39.612Z,6.70
2022-10-26T10:50:18.449Z,6.32
2022-10-26T10:52:49.305Z,5.18
2022-10-26T10:55:23.955Z,6.15
2022-10-26T10:58:08.437Z,7.57
2022-10-26T11:00:42.614Z,5.45
2022-10-26T11:03:43.219Z,6.72
2022-10-26T11:06:19.792Z,4.22
2022-10-26T11:08:53.158Z,8.52
2022-10-26T11:11:27.262Z,11.03
2022-10-26T11:14:02.764Z,6.25
2022-10-26T11:16:40.755Z,9.70
2022-10-26T11:19:21.058Z,10.27
2022-10-26T11:21:54.265Z,10.80
2022-10-26T11:24:28.611Z,8.13
2022-10-26T11:29:40.964Z,6.32
2022-10-26T11:32:19.613Z,7.55
2022-10-26T11:34:56.655Z,7.40
2022-10-26T11:37:32.474Z,7.25
2022-10-26T11:40:07.916Z,6.50
2022-10-26T11:42:44.126Z,4.95
2022-10-26T11:45:22.521Z,8.63
2022-10-26T11:47:58.027Z,4.75
2022-10-26T11:50:32.313Z,4.18
2022-10-26T11:55:34.433Z,4.68
2022-10-26T11:58:05.587Z,7.30
2022-10-26T12:00:45.519Z,7.30
2022-10-26T12:03:22.468Z,5.75
2022-10-26T12:05:54.180Z,4.88
2022-10-26T12:08:27.659Z,4.10
2022-10-26T12:14:00.030Z,4.38
2022-10-26T12:16:51.018Z,3.90
2022-10-26T12:19:28.923Z,5.32
2022-10-26T12:22:01.233Z,7.10
2022-10-26T12:24:35.246Z,6.30
2022-10-26T12:27:07.620Z,3.53
2022-10-26T12:29:49.426Z,8.98
2022-10-26T12:32:52.548Z,5.57
2022-10-26T12:35:43.644Z,6.03
2022-10-26T12:38:50.322Z,3.20
2022-10-26T12:41:28.545Z,5.82
2022-10-26T12:44:02.763Z,6.70
2022-10-26T12:46:45.031Z,6.60
2022-10-26T12:49:57.794Z,9.52
2022-10-26T12:52:52.052Z,6.90
2022-10-26T12:56:06.988Z,8.75
2022-10-26T12:59:03.601Z,7.63
2022-10-26T13:05:20.589Z,4.68
2022-10-26T13:07:53.501Z,6.93
2022-10-26T13:10:25.820Z,7.05
2022-10-26T13:13:00.091Z,4.90
2022-10-26T13:15:32.259Z,2.67
2022-10-26T13:18:05.276Z,4.97
2022-10-26T13:20:36.506Z,5.95
2022-10-26T13:23:22.277Z,5.78
2022-10-26T13:26:06.372Z,5.85
2022-10-26T13:28:47.229Z,5.45
2022-10-26T13:31:55.305Z,7.47
2022-10-26T13:34:27.265Z,3.97
2022-10-26T13:37:07.823Z,7.65
2022-10-26T13:39:44.041Z,4.72
2022-10-26T13:42:18.844Z,6.28
2022-10-26T13:44:55.206Z,4.68
2022-10-26T13:47:30.343Z,4.82
2022-10-26T13:50:04.621Z,4.28
2022-10-26T13:55:15.959Z,8.65
2022-10-26T13:57:47.586Z,5.85
2022-10-26T14:00:21.850Z,6.28
2022-10-26T14:05:22.341Z,5.60
2022-10-26T14:07:57.157Z,5.82
2022-10-26T14:10:32.980Z,5.95
2022-10-26T14:13:03.734Z,8.93
2022-10-26T14:15:35.290Z,7.70
2022-10-26T14:18:06.573Z,5.22
2022-10-26T14:20:36.333Z,7.88
2022-10-26T14:23:06.054Z,5.95
2022-10-26T14:25:42.680Z,5.55
2022-10-26T14:28:26.401Z,7.78
2022-10-26T14:30:57.217Z,8.77
2022-10-26T14:33:31.158Z,6.57
2022-10-26T14:36:01.147Z,8.98
2022-10-26T14:38:34.729Z,6.43
2022-10-26T14:41:07.434Z,5.90
2022-10-26T14:43:37.491Z,9.02
2022-10-26T14:46:07.506Z,8.00
2022-10-26T14:48:38.830Z,4.85
2022-10-26T14:51:13.387Z,8.23
2022-10-26T14:53:50.087Z,4.75
2022-10-26T14:56:33.511Z,6.60
2022-10-26T14:59:13.623Z,5.57
2022-10-26T15:01:52.587Z,5.15
2022-10-26T15:04:32.287Z,5.13
2022-10-26T15:07:10.837Z,5.90
2022-10-26T15:09:46.437Z,5.50
2022-10-26T15:12:40.412Z,7.78
2022-10-26T15:15:23.928Z,7.90
2022-10-26T15:17:56.200Z,5.37
2022-10-26T15:20:27.672Z,7.03
2022-10-26T15:22:58.787Z,6.00
2022-10-26T15:25:33.209Z,5.63
2022-10-26T15:31:02.135Z,8.55
2022-10-26T15:33:32.500Z,6.43
2022-10-26T15:36:17.027Z,5.53
2022-10-26T15:41:21.536Z,5.75
2022-10-26T15:43:56.632Z,6.10
2022-10-26T15:46:27.010Z,5.75
2022-10-26T15:48:59.033Z,5.28
2022-10-26T15:51:29.994Z,6.45
2022-10-26T15:54:00.413Z,7.35
2022-10-26T15:56:30.259Z,9.65
2022-10-26T15:59:02.639Z,9.90
2022-10-26T16:01:32.475Z,9.02
2022-10-26T16:04:02.343Z,7.65
2022-10-26T16:06:33.885Z,5.15
2022-10-26T16:09:06.021Z,10.00
2022-10-26T16:11:36.102Z,9.45
2022-10-26T16:14:08.542Z,14.55
2022-10-26T16:16:38.951Z,9.60
2022-10-26T16:19:29.956Z,8.35
2022-10-26T16:24:57.624Z,10.40
2022-10-26T16:27:27.395Z,6.22
2022-10-26T16:29:59.731Z,10.82
2022-10-26T16:32:29.435Z,8.55
2022-10-26T16:34:59.198Z,10.77
2022-10-26T16:37:31.385Z,9.52
2022-10-26T16:40:01.272Z,10.20
2022-10-26T16:42:33.164Z,8.50
2022-10-26T16:45:06.272Z,10.30
2022-10-26T16:47:39.766Z,9.48
2022-10-26T16:50:11.205Z,13.37
2022-10-26T16:52:41.439Z,9.93
2022-10-26T16:55:12.272Z,8.18
2022-10-26T16:57:42.041Z,10.07
2022-10-26T17:00:15.169Z,8.57
2022-10-26T17:02:44.971Z,12.50
2022-10-26T17:05:14.833Z,10.93
2022-10-26T17:07:44.568Z,12.35
2022-10-26T17:10:14.295Z,13.80
2022-10-26T17:12:44.007Z,11.52
2022-10-26T17:15:19.773Z,9.93
2022-10-26T17:17:52.313Z,10.27
2022-10-26T17:20:22.330Z,11.13
2022-10-26T17:22:52.240Z,9.43
2022-10-26T17:25:22.227Z,10.05
2022-10-26T17:27:51.992Z,13.07
2022-10-26T17:30:24.346Z,12.77
2022-10-26T17:32:54.094Z,9.75
2022-10-26T17:35:23.951Z,14.13
2022-10-26T17:37:53.874Z,9.35
2022-10-26T17:40:23.793Z,7.95
2022-10-26T17:42:53.511Z,9.65
2022-10-26T17:45:25.805Z,11.13
2022-10-26T17:47:55.766Z,18.42
2022-10-26T17:50:25.493Z,17.65
2022-10-26T17:52:55.230Z,11.38
2022-10-26T17:55:25.015Z,11.43
2022-10-26T17:57:54.768Z,13.00
2022-10-26T18:00:27.734Z,13.68
2022-10-26T18:05:51.733Z,14.48
2022-10-26T18:10:51.821Z,13.77
2022-10-26T18:13:22.169Z,20.23
2022-10-26T18:15:54.456Z,19.38
2022-10-26T18:18:24.233Z,18.90
2022-10-26T18:20:53.940Z,20.90
2022-10-26T18:23:23.779Z,22.08
2022-10-26T18:26:05.857Z,18.17
2022-10-26T18:28:38.403Z,15.63
2022-10-26T18:31:12.560Z,15.25
2022-10-26T18:33:42.400Z,15.32
2022-10-26T18:36:14.572Z,17.33
2022-10-26T18:38:45.080Z,13.95
2022-10-26T18:41:16.327Z,14.15
2022-10-26T18:43:49.311Z,14.60
2022-10-26T18:46:24.634Z,15.07
2022-10-26T18:48:55.165Z,15.35
2022-10-26T18:51:28.720Z,13.60
2022-10-26T18:53:59.936Z,12.32
2022-10-26T18:56:29.758Z,16.17
2022-10-26T18:59:01.998Z,23.83
2022-10-26T19:01:36.737Z,21.98
2022-10-26T19:04:08.178Z,22.73
2022-10-26T19:06:39.802Z,14.93
2022-10-26T19:09:10.889Z,14.57
2022-10-26T19:11:42.272Z,16.65
2022-10-26T19:14:13.698Z,14.50
2022-10-26T19:16:47.557Z,15.65
2022-10-26T19:19:18.169Z,19.25
2022-10-26T19:21:48.772Z,14.00
2022-10-26T19:24:20.888Z,20.05
2022-10-26T19:26:52.004Z,16.00
2022-10-26T19:29:22.797Z,17.98
2022-10-26T19:31:55.985Z,14.68
2022-10-26T19:34:26.139Z,15.98
2022-10-26T19:36:55.878Z,15.27
2022-10-26T19:39:26.039Z,19.20
2022-10-26T19:41:55.785Z,16.75
2022-10-26T19:44:25.774Z,17.73
2022-10-26T19:46:58.147Z,15.85
2022-10-26T19:49:28.124Z,17.80
2022-10-26T19:51:58.023Z,16.02
2022-10-26T19:54:27.761Z,15.90
2022-10-26T19:56:57.461Z,14.65
2022-10-26T19:59:27.226Z,14.40
2022-10-26T20:02:00.429Z,15.40
2022-10-26T20:04:30.160Z,15.90
2022-10-26T20:06:59.899Z,14.35
2022-10-26T20:09:29.614Z,14.30
2022-10-26T20:11:59.334Z,15.23
2022-10-26T20:14:29.071Z,16.23
2022-10-26T20:17:01.368Z,13.32
2022-10-26T20:19:31.074Z,11.63
2022-10-26T20:22:00.894Z,15.05
2022-10-26T20:24:30.775Z,15.07
2022-10-26T20:27:00.557Z,16.20
2022-10-26T20:29:30.288Z,16.55
2022-10-26T20:32:02.590Z,16.85
2022-10-26T20:34:32.310Z,20.08
2022-10-26T20:37:02.033Z,14.93
2022-10-26T20:39:32.408Z,18.92
2022-10-26T20:42:02.816Z,19.48
2022-10-26T20:44:37.081Z,11.75
2022-10-26T20:47:11.676Z,15.68
2022-10-26T20:49:42.247Z,15.55
2022-10-26T20:52:21.229Z,14.80
2022-10-26T20:54:56.818Z,15.45
2022-10-26T20:57:32.252Z,15.40
2022-10-26T21:00:09.084Z,16.98
2022-10-26T21:02:41.436Z,22.08
2022-10-26T21:05:11.534Z,14.75
2022-10-26T21:07:41.251Z,11.82
2022-10-26T21:10:11.483Z,20.30
2022-10-26T21:12:41.205Z,19.55
2022-10-26T21:15:12.249Z,18.55
2022-10-26T21:17:44.697Z,17.00
2022-10-26T21:20:14.745Z,14.40
2022-10-26T21:22:44.495Z,14.77
2022-10-26T21:25:14.255Z,13.50
2022-10-26T21:27:44.003Z,13.75
2022-10-26T21:30:14.974Z,16.20
2022-10-26T21:32:47.332Z,18.20
2022-10-26T21:35:17.230Z,21.08
2022-10-26T21:37:47.060Z,12.25
2022-10-26T21:40:17.591Z,13.07
2022-10-26T21:42:52.635Z,26.10
2022-10-26T21:45:22.709Z,17.27
2022-10-26T21:47:56.399Z,16.35
2022-10-26T21:50:26.282Z,13.40
2022-10-26T21:52:56.227Z,24.17
2022-10-26T21:55:25.942Z,16.77
2022-10-26T21:57:56.083Z,14.85
2022-10-26T22:00:26.655Z,15.88
2022-10-26T22:02:58.928Z,18.85
2022-10-26T22:05:29.644Z,17.83
2022-10-26T22:07:59.494Z,20.33
2022-10-26T22:10:29.440Z,16.95
2022-10-26T22:13:00.962Z,17.08
2022-10-26T22:15:30.717Z,14.35
2022-10-26T22:18:03.053Z,18.77
2022-10-26T22:20:32.815Z,15.93
2022-10-26T22:25:35.164Z,17.70
2022-10-26T22:28:04.910Z,13.02
2022-10-26T22:30:34.649Z,18.27
2022-10-26T22:33:06.950Z,17.15
2022-10-26T22:35:36.686Z,20.50
2022-10-26T22:38:06.391Z,18.05
2022-10-26T22:40:36.123Z,19.83
2022-10-26T22:43:05.878Z,15.02
2022-10-26T22:45:35.604Z,12.82
2022-10-26T22:50:58.414Z,14.55
2022-10-26T22:53:28.464Z,19.58
2022-10-26T22:55:58.185Z,19.73
2022-10-26T22:58:27.969Z,19.92
2022-10-26T23:01:04.712Z,21.13
2022-10-26T23:03:37.930Z,19.45
2022-10-26T23:06:10.326Z,19.77
2022-10-26T23:08:40.259Z,18.35
2022-10-26T23:11:12.561Z,17.40
2022-10-26T23:13:42.433Z,19.08
2022-10-26T23:16:14.072Z,16.38
2022-10-26T23:18:47.016Z,16.20
2022-10-26T23:21:17.500Z,16.50
2022-10-26T23:23:47.638Z,17.30
2022-10-26T23:26:21.362Z,16.63
2022-10-26T23:28:52.781Z,16.55
2022-10-26T23:31:25.492Z,19.88
2022-10-26T23:33:59.077Z,16.88
2022-10-26T23:36:28.890Z,19.10
2022-10-26T23:38:58.611Z,16.80
2022-10-26T23:41:28.945Z,18.90
2022-10-26T23:43:58.653Z,13.68
2022-10-26T23:46:28.542Z,17.58
2022-10-26T23:49:00.886Z,18.45
2022-10-26T23:51:30.872Z,20.38
2022-10-26T23:54:00.561Z,15.43
2022-10-26T23:56:30.279Z,15.15
2022-10-26T23:59:01.120Z,13.75
